• Join FlightAware (Why Join?)
  • Login
  • US Flag 
05:00AM EDT


 

Airport Tracker/Info


-or-


 

Live Flight TrackerFlight Track Log ✈ BJS542 ✈ 22-Aug-2013 ✈ KASE - KPIH

Flight Track Log - Related Links

Times and Time Zones

All times are in EDT time to prevent confusion due to time zone crossing. See the BJS542 flight status page for this flight to view local times or setup timezone preferences in your user account.

Time Position Orientation Groundspeed Altitude Reporting Facility
EDT Latitude Longitude Course Direction KTS MPH feet Rate Location/Type
02:30PM 39.2861 -106.9383 322° Northwest 251 289 11,700  Level Denver Center
02:31PM 39.3042 -107.0231 285° West 241 277 15,100 2,880 Climbing Denver Center
02:33PM 39.3475 -107.0967 307° West 252 290 17,700 2,040 Climbing Denver Center
02:34PM 39.4089 -107.1803 314° West 314 361 19,400 1,440 Climbing Denver Center
02:35PM 39.4981 -107.2817 319° Northwest 370 426 20,700 1,500 Climbing Denver Center
02:36PM 39.6647 -107.4647 322° Northwest  Level FlightAware Approximate
02:36PM 39.5839 -107.3758 320° Northwest 410 472 22,600  Level Denver Center
02:37PM 39.6844 -107.4892 319° Northwest 425 489 25,000 2,160 Climbing Denver Center
02:38PM 39.7708 -107.5844 320° Northwest 426 490 27,200 2,040 Climbing Denver Center
02:39PM 39.8711 -107.7022 318° Northwest 431 496 29,300 1,680 Climbing Denver Center
02:40PM 39.9447 -107.8169 310° West 436 502 30,700 1,500 Climbing Denver Center
02:41PM 40.0350 -107.9542 311° West 444 511 32,400 1,500 Climbing Denver Center
02:42PM 40.1161 -108.0761 311° West 460 529 33,800 1,440 Climbing Denver Center
02:43PM 40.2072 -108.2175 310° West 458 527 35,400 1,020 Climbing Denver Center
02:44PM 40.2867 -108.3406 310° West 462 532 36,000 300 Climbing Denver Center
02:45PM 40.3428 -108.4275 310° West 461 531 36,000  Level Salt Lake Center
02:46PM 40.4342 -108.5700 310° West 457 526 36,000  Level Salt Lake Center
02:47PM 40.5122 -108.6936 310° West 458 527 36,000  Level Salt Lake Center
02:48PM 40.6031 -108.8378 310° West 458 527 36,000  Level Salt Lake Center
02:49PM 40.6819 -108.9617 310° West 459 528 36,000  Level Salt Lake Center
02:50PM 40.7719 -109.1075 309° West 459 528 36,000  Level Salt Lake Center
02:51PM 40.8500 -109.2339 309° West 461 531 36,000  Level Salt Lake Center
02:52PM 40.9292 -109.3606 310° West 463 533 36,000  Level Salt Lake Center
02:53PM 41.0219 -109.5111 309° West 469 540 36,000  Level Salt Lake Center
02:54PM 41.1025 -109.6406 310° West 471 542 36,000  Level Salt Lake Center
02:55PM 41.1944 -109.7908 309° West 468 539 36,000  Level Salt Lake Center
02:56PM 41.2722 -109.9175 309° West 462 532 36,000  Level Salt Lake Center
02:57PM 41.3628 -110.0656 309° West 461 531 36,000  Level Salt Lake Center
02:58PM 41.4397 -110.1928 309° West 460 529 36,000  Level Salt Lake Center
02:59PM 41.5292 -110.3425 309° West 461 531 36,000  Level Salt Lake Center
03:00PM 41.6067 -110.4692 309° West 460 529 36,000  Level Salt Lake Center
03:01PM 41.6839 -110.5978 309° West 463 533 36,000  Level Salt Lake Center
03:02PM 41.7742 -110.7483 309° West 464 534 36,000 -540 Level Salt Lake Center
03:03PM 41.8506 -110.8772 309° West 462 532 34,900 -1,320 Descending Salt Lake Center
03:04PM 41.9419 -111.0325 308° West 472 543 33,300 -1,920 Descending Salt Lake Center
03:05PM 42.0200 -111.1631 309° West 471 542 31,000 -2,760 Descending Salt Lake Center
03:06PM 42.1133 -111.3242 308° West 487 560 27,700 -2,700 Descending Salt Lake Center
03:07PM 42.1925 -111.4578 309° West 480 552 25,500 -2,220 Descending Salt Lake Center
03:08PM 42.2750 -111.6025 308° West 444 511 23,200 -2,040 Descending Salt Lake Center
03:09PM 42.3425 -111.7200 308° West 422 486 21,300 -2,280 Descending Salt Lake Center
03:10PM 42.4192 -111.8536 308° West 405 466 18,600 -2,340 Descending Salt Lake Center
03:11PM 42.4817 -111.9633 308° West 400 460 16,500 -2,340 Descending Salt Lake Center
03:13PM 42.5547 -112.0928 307° West 393 452 13,800 -1,800 Descending Salt Lake Center
03:14PM 42.6144 -112.1975 308° West 383 441 12,800 -900 Descending Salt Lake Center
03:15PM 42.6836 -112.3172 308° West 372 428 12,000 -420 Descending Salt Lake Center
03:16PM 42.7397 -112.4183 307° West 364 419 12,000 -420 Level Salt Lake Center
03:17PM 42.8011 -112.5283 307° West 349 402 11,200 -1,200 Descending Salt Lake Center
03:18PM 42.8747 -112.5153 North 318 366 9,600 -2,040 Descending Salt Lake Center
03:19PM 42.9386 -112.4478 38° Northeast 276 318 7,000 -1,800 Descending Salt Lake Center
03:20PM 42.9656 -112.5131 299° West 231 266 5,900 -840 Descending Salt Lake Center
03:21PM 42.9358 -112.5478 221° Southwest 190 219 5,300 -600 Descending Salt Lake Center